Weather reports worldwide

Advertisment
Toulon Arsenal, France (7660): temperature & dewpoint: 09.12.2019 19:00:00 - 15.12.2019 19:00:00 (CET)Toulon Arsenal, France (7660): wind speed & gusts: 09.12.2019 19:00:00 - 15.12.2019 19:00:00 (CET)Toulon Arsenal, France (7660): wind direction: 09.12.2019 19:00:00 - 15.12.2019 19:00:00 (CET)Toulon Arsenal, France (7660): precipitation: 09.12.2019 19:00:00 - 15.12.2019 19:00:00 (CET)
Date & Time tt [°C] td [°C] ff [km/h] ff [kn] fx [km/h] fx [kn] dd rr [mm]
15.12.2019 19:00:00 14,9 12,2 21 11 29 16 SE -
15.12.2019 18:00:00 15,0 12,5 15 8 22 12 SE 0,0
15.12.2019 17:00:00 15,2 11,4 11 6 24 13 SE 0,0
15.12.2019 16:00:00 15,5 11,7 15 8 24 13 SE 0,0
15.12.2019 15:00:00 15,6 11,6 13 7 24 13 SE 0,0
15.12.2019 14:00:00 16,4 11,5 9 5 22 12 SSE 0,0
15.12.2019 13:00:00 16,1 11,5 9 5 16 9 SE -
15.12.2019 12:00:00 16,5 11,2 4 2 9 5 ESE 0,0
15.12.2019 11:00:00 14,8 10,2 4 2 8 4 E 0,0
15.12.2019 10:00:00 12,1 9,8 2 1 4 2 S 0,0
15.12.2019 09:00:00 8,8 8,5 0 0 4 2 N 0,0
15.12.2019 08:00:00 8,1 7,7 2 1 5 3 N 0,0
15.12.2019 07:00:00 8,7 7,9 0 0 11 6 N -
15.12.2019 06:00:00 9,3 8,4 4 2 13 7 NNW 0,0
15.12.2019 05:00:00 9,5 8,6 2 1 5 3 NW 0,0
15.12.2019 04:00:00 9,7 8,5 0 0 8 4 N 0,0
15.12.2019 03:00:00 11,0 8,7 2 1 15 8 W 0,0
15.12.2019 02:00:00 11,7 9,3 5 3 13 7 W 0,0
15.12.2019 01:00:00 11,9 9,5 5 3 16 9 WNW -
15.12.2019 00:00:00 12,9 10,4 11 6 16 9 WNW 0,0
14.12.2019 23:00:00 13,6 10,6 8 4 24 13 W 0,0
14.12.2019 22:00:00 14,3 10,3 11 6 22 12 WSW 0,0
14.12.2019 21:00:00 13,6 9,2 4 2 13 7 W 0,0
14.12.2019 20:00:00 14,3 9,5 4 2 26 14 W 0,0
14.12.2019 19:00:00 15,1 9,9 13 7 29 16 W -
14.12.2019 18:00:00 15,3 10,3 15 8 29 16 W 0,0
14.12.2019 17:00:00 16,1 10,6 18 10 34 18 W 0,0
14.12.2019 16:00:00 17,3 10,4 15 8 50 27 W 0,0
14.12.2019 15:00:00 17,9 10,0 24 13 57 31 W 0,0
14.12.2019 14:00:00 17,9 10,5 31 17 70 38 W 0,0
14.12.2019 13:00:00 17,4 10,5 34 18 68 37 W -
14.12.2019 12:00:00 17,3 10,9 28 15 63 34 W 0,0
14.12.2019 11:00:00 16,4 10,9 28 15 55 30 W 0,0
14.12.2019 10:00:00 15,2 10,6 22 12 42 23 WNW 0,0
14.12.2019 09:00:00 13,7 9,1 22 12 41 22 WNW 0,0
14.12.2019 08:00:00 12,4 8,1 15 8 31 17 WNW 0,0
14.12.2019 07:00:00 11,8 7,5 16 9 34 18 WNW -
14.12.2019 06:00:00 11,5 7,6 18 10 31 17 W 0,0
14.12.2019 05:00:00 10,6 8,0 13 7 28 15 W 0,0
14.12.2019 04:00:00 10,5 6,6 16 9 41 22 W 0,0
14.12.2019 03:00:00 9,6 5,2 15 8 34 18 WNW 0,0
14.12.2019 02:00:00 10,2 4,6 13 7 28 15 WNW 0,0
14.12.2019 01:00:00 9,6 4,6 13 7 26 14 W -
14.12.2019 00:00:00 10,1 4,0 15 8 34 18 WNW 0,0
13.12.2019 23:00:00 10,7 3,5 16 9 35 19 W 0,0
13.12.2019 22:00:00 11,6 3,1 15 8 35 19 W 0,0
13.12.2019 21:00:00 12,1 2,8 15 8 34 18 W 0,0
13.12.2019 20:00:00 12,3 2,4 18 10 37 20 W 0,0
13.12.2019 19:00:00 12,2 3,2 16 9 50 27 WNW -
13.12.2019 18:00:00 12,6 3,8 21 11 42 23 W 0,0
13.12.2019 17:00:00 12,3 5,7 15 8 34 18 W 0,0
13.12.2019 16:00:00 13,0 5,9 15 8 41 22 WNW 0,0
13.12.2019 15:00:00 12,8 5,0 15 8 42 23 W 0,0
13.12.2019 14:00:00 13,9 3,9 24 13 50 27 WNW 0,0
13.12.2019 13:00:00 15,2 6,2 18 10 59 32 W -
13.12.2019 12:00:00 14,7 7,7 22 12 55 30 W 0,0
13.12.2019 11:00:00 14,1 9,3 26 14 57 31 W 0,0
13.12.2019 10:00:00 14,3 12,7 34 18 65 35 WNW 6,0
13.12.2019 09:00:00 15,3 12,8 44 24 81 44 WSW 0,6
13.12.2019 08:00:00 13,9 11,9 22 12 61 33 W 1,0
13.12.2019 07:00:00 13,1 12,5 22 12 44 24 WSW -
13.12.2019 06:00:00 7,9 7,6 2 1 5 3 ENE 2,0
13.12.2019 05:00:00 7,6 7,3 2 1 8 4 ENE 0,4
13.12.2019 04:00:00 7,3 7,0 0 0 5 3 N 0,0
13.12.2019 03:00:00 6,9 6,5 2 1 5 3 ENE 0,0
13.12.2019 02:00:00 6,7 6,1 2 1 8 4 NE 0,0
13.12.2019 01:00:00 7,7 6,8 2 1 9 5 N -
13.12.2019 00:00:00 8,2 6,7 8 4 15 8 ENE 0,0
12.12.2019 23:00:00 7,7 6,3 4 2 11 6 NE 1,0
12.12.2019 22:00:00 7,9 4,3 4 2 8 4 NNW 0,0
12.12.2019 21:00:00 7,1 3,7 0 0 5 3 N 0,0
12.12.2019 20:00:00 6,8 1,5 0 0 5 3 N 0,0
12.12.2019 19:00:00 7,8 0,3 2 1 11 6 W -
12.12.2019 18:00:00 7,3 0,3 4 2 16 9 WNW 0,0
12.12.2019 17:00:00 9,2 -0,2 8 4 31 17 WNW 0,0
12.12.2019 16:00:00 11,1 -0,7 16 9 37 20 WNW 0,0
12.12.2019 15:00:00 11,4 -0,8 16 9 41 22 W 0,0
12.12.2019 14:00:00 11,0 -0,5 22 12 39 21 W 0,0
12.12.2019 13:00:00 10,9 -0,9 21 11 41 22 W -
12.12.2019 12:00:00 10,6 -1,5 21 11 48 26 W 0,0
12.12.2019 11:00:00 10,2 -1,8 21 11 52 28 W 0,0
12.12.2019 10:00:00 9,2 -1,8 15 8 41 22 W 0,0
12.12.2019 09:00:00 8,5 -2,2 21 11 41 22 W 0,0
12.12.2019 08:00:00 7,4 -0,8 18 10 44 24 W 0,0
12.12.2019 07:00:00 7,8 -0,9 24 13 46 25 W -
12.12.2019 06:00:00 8,2 -0,1 24 13 44 24 WNW 0,0
12.12.2019 05:00:00 8,1 0,3 22 12 44 24 WNW 0,0
12.12.2019 04:00:00 7,8 2,0 18 10 46 25 W 0,0
12.12.2019 03:00:00 8,3 2,9 22 12 54 29 W 0,0
12.12.2019 02:00:00 9,2 2,7 22 12 50 27 W 0,0
12.12.2019 01:00:00 8,8 1,5 22 12 44 24 W -
12.12.2019 00:00:00 9,2 1,1 22 12 41 22 WNW 0,0
11.12.2019 23:00:00 9,2 2,3 22 12 44 24 WNW 0,0
11.12.2019 22:00:00 9,2 4,2 21 11 48 26 W 0,0
11.12.2019 21:00:00 9,7 4,9 22 12 46 25 W 0,0
11.12.2019 20:00:00 10,9 4,6 13 7 39 21 WNW 0,0
11.12.2019 19:00:00 10,7 5,0 22 12 41 22 W -
11.12.2019 18:00:00 11,4 5,7 8 4 21 11 W 0,0
11.12.2019 17:00:00 11,7 5,3 11 6 18 10 WNW 0,0
11.12.2019 16:00:00 12,2 6,7 5 3 16 9 WNW 0,0
11.12.2019 15:00:00 12,7 6,1 4 2 15 8 W 0,0
11.12.2019 14:00:00 12,2 7,9 0 0 5 3 N 0,0
11.12.2019 13:00:00 12,3 6,3 2 1 5 3 W -
11.12.2019 12:00:00 11,7 5,1 0 0 8 4 N 0,0
11.12.2019 11:00:00 10,3 4,9 0 0 5 3 N 0,0
11.12.2019 10:00:00 7,9 5,0 0 0 4 2 N 0,0
11.12.2019 09:00:00 5,6 3,9 0 0 4 2 N 0,0
11.12.2019 08:00:00 3,7 2,7 0 0 4 2 N 0,0
11.12.2019 07:00:00 3,3 2,4 0 0 4 2 N -
11.12.2019 06:00:00 3,0 2,0 0 0 4 2 N 0,0
11.12.2019 05:00:00 2,9 1,6 0 0 4 2 N 0,0
11.12.2019 04:00:00 3,1 1,1 2 1 5 3 WNW 0,0
11.12.2019 03:00:00 3,4 1,3 2 1 4 2 N 0,0
11.12.2019 02:00:00 3,8 0,5 0 0 8 4 N 0,0
11.12.2019 01:00:00 4,1 0,4 0 0 8 4 N -
11.12.2019 00:00:00 4,8 -0,2 4 2 8 4 NNW 0,0
10.12.2019 23:00:00 5,7 -1,7 4 2 9 5 E 0,0
10.12.2019 22:00:00 5,0 -1,7 2 1 8 4 WNW 0,0
10.12.2019 21:00:00 6,1 -2,5 4 2 8 4 NW 0,0
10.12.2019 20:00:00 7,5 -2,3 0 0 13 7 N 0,0
10.12.2019 19:00:00 9,2 -3,4 4 2 9 5 NNW -
10.12.2019 18:00:00 9,9 -2,1 4 2 13 7 N 0,0
10.12.2019 17:00:00 13,1 0,1 4 2 16 9 W 0,0
10.12.2019 16:00:00 16,4 -1,7 11 6 24 13 W 0,0
10.12.2019 15:00:00 18,8 -2,8 4 2 11 6 S 0,0
10.12.2019 14:00:00 18,0 -1,8 8 4 13 7 S 0,0
10.12.2019 13:00:00 18,6 -5,5 4 2 22 12 SE -
10.12.2019 12:00:00 17,6 -5,0 4 2 26 14 NNW 0,0
10.12.2019 11:00:00 15,3 -5,7 9 5 37 20 WNW 0,0
10.12.2019 10:00:00 13,4 -5,3 11 6 41 22 NW 0,0
10.12.2019 09:00:00 12,9 -5,2 8 4 41 22 W 0,0
10.12.2019 08:00:00 12,0 -4,6 13 7 42 23 W 0,0
10.12.2019 07:00:00 12,4 -4,7 9 5 39 21 NW -
10.12.2019 06:00:00 11,9 -3,9 8 4 39 21 N 0,0
10.12.2019 05:00:00 11,6 -3,8 13 7 48 26 N 0,0
10.12.2019 04:00:00 11,5 -3,5 16 9 46 25 WNW 0,0
10.12.2019 03:00:00 10,8 -2,6 16 9 55 30 NNW 0,0
10.12.2019 02:00:00 11,2 -3,0 16 9 78 42 NW 0,0
10.12.2019 01:00:00 10,4 -0,7 29 16 80 43 WNW -
10.12.2019 00:00:00 10,2 1,0 34 18 78 42 WNW 0,0
09.12.2019 23:00:00 10,9 1,1 35 19 74 40 WNW 0,0
09.12.2019 22:00:00 11,3 1,5 29 16 55 30 WNW 0,0
09.12.2019 21:00:00 12,2 1,8 22 12 67 36 WNW 0,0
09.12.2019 20:00:00 11,7 2,9 11 6 37 20 W 0,0
09.12.2019 19:00:00 12,4 3,1 18 10 42 23 W -

tt = temperature
td = dewpoint
ff = wind speed
fx = gusts
dd = wind direction
rr = precipitation

Next stations